Time;durP1;ratioP1;P1;durP2;ratioP2;P2;SDS_P1;SDS_P2;PMS_P1;PMS_P2;Temp;Humidity;BMP_temperature;BMP_pressure;BME280_temperature;BME280_humidity;BME280_pressure;Samples;Min_cycle;Max_cycle;Signal;HPM_P1;HPM_P2
2022/04/11 00:01:50;;;;;;;14.93;9.63;;;7.90;67.30;;;;;;5023352;28;20035;-75
2022/04/11 00:04:16;;;;;;;12.90;9.48;;;7.80;67.30;;;;;;5001453;28;20037;-73
2022/04/11 00:06:41;;;;;;;16.73;9.93;;;7.80;67.60;;;;;;5014805;28;20330;-73
2022/04/11 00:09:07;;;;;;;15.90;9.65;;;7.80;67.90;;;;;;5007565;28;20056;-73
2022/04/11 00:11:33;;;;;;;15.43;9.40;;;7.70;68.00;;;;;;5010711;28;20042;-74
2022/04/11 00:13:59;;;;;;;15.75;9.40;;;7.70;68.00;;;;;;5005601;28;20128;-74
2022/04/11 00:16:25;;;;;;;14.30;8.75;;;7.70;68.10;;;;;;5013323;28;20040;-73
2022/04/11 00:18:51;;;;;;;14.43;8.98;;;7.60;68.30;;;;;;5016864;28;20053;-75
2022/04/11 00:21:17;;;;;;;16.73;9.68;;;7.60;68.30;;;;;;5010332;28;20044;-74
2022/04/11 00:23:43;;;;;;;15.10;10.25;;;7.50;68.50;;;;;;5002528;28;20034;-74
2022/04/11 00:26:08;;;;;;;15.18;9.68;;;7.40;68.50;;;;;;5008970;28;20627;-73
2022/04/11 00:28:34;;;;;;;14.23;8.93;;;7.40;68.80;;;;;;5010982;28;20755;-72
2022/04/11 00:30:59;;;;;;;15.38;9.40;;;7.30;68.90;;;;;;5023424;28;20033;-74
2022/04/11 00:33:25;;;;;;;17.27;10.23;;;7.20;69.00;;;;;;5015712;28;20436;-74
2022/04/11 00:35:51;;;;;;;13.48;9.05;;;7.10;69.20;;;;;;5010222;28;20426;-73
2022/04/11 00:38:16;;;;;;;13.52;9.65;;;7.10;69.20;;;;;;5010603;28;22016;-74
2022/04/11 00:40:42;;;;;;;13.98;9.57;;;7.10;69.40;;;;;;5012584;28;20509;-74
2022/04/11 00:43:08;;;;;;;19.13;11.00;;;7.00;69.50;;;;;;5008714;28;20489;-74
2022/04/11 00:45:34;;;;;;;14.82;9.25;;;7.00;69.60;;;;;;5018012;28;20045;-73
2022/04/11 00:47:59;;;;;;;14.30;9.43;;;6.90;69.70;;;;;;5009139;28;20038;-75
2022/04/11 00:50:25;;;;;;;15.60;10.23;;;6.80;69.90;;;;;;5018389;28;20038;-72
2022/04/11 00:52:54;;;;;;;17.27;11.60;;;6.80;69.90;;;;;;5017917;28;20114;-74
2022/04/11 00:55:24;;;;;;;17.02;10.93;;;6.70;70.10;;;;;;5003604;28;20523;-73
2022/04/11 00:57:50;;;;;;;15.60;10.30;;;6.70;70.20;;;;;;5005153;28;20408;-74
2022/04/11 01:00:17;;;;;;;14.10;9.65;;;6.70;70.40;;;;;;5017587;28;20409;-74
2022/04/11 01:02:42;;;;;;;17.42;11.10;;;6.60;70.40;;;;;;5016917;28;20044;-73
2022/04/11 01:05:09;;;;;;;16.23;10.63;;;6.60;70.60;;;;;;5014420;28;20064;-75
2022/04/11 01:07:39;;;;;;;17.73;10.85;;;6.60;70.70;;;;;;5013208;28;20095;-73
2022/04/11 01:10:06;;;;;;;15.38;10.02;;;6.50;70.70;;;;;;5006118;28;20073;-72
2022/04/11 01:12:32;;;;;;;16.67;11.00;;;6.50;70.80;;;;;;5011152;28;20045;-73
2022/04/11 01:14:58;;;;;;;18.48;11.18;;;6.50;70.60;;;;;;5011109;28;20042;-73
2022/04/11 01:17:35;;;;;;;15.05;10.32;;;6.50;70.70;;;;;;5004501;28;20049;-75
2022/04/11 01:20:12;;;;;;;16.88;10.80;;;6.40;70.90;;;;;;5016801;28;20095;-72
2022/04/11 01:22:42;;;;;;;18.73;10.70;;;6.30;71.10;;;;;;5014079;28;20866;-73
2022/04/11 01:25:10;;;;;;;16.10;11.07;;;6.30;71.10;;;;;;5008328;28;20041;-74
2022/04/11 01:27:37;;;;;;;15.90;10.57;;;6.30;71.20;;;;;;5012180;28;20179;-72
2022/04/11 01:30:03;;;;;;;14.57;10.27;;;6.20;71.30;;;;;;5009381;28;20168;-72
2022/04/11 01:32:29;;;;;;;18.25;10.75;;;6.20;71.20;;;;;;5009236;28;20066;-74
2022/04/11 01:34:55;;;;;;;14.82;10.30;;;6.20;71.20;;;;;;5004765;28;20049;-73
2022/04/11 01:37:21;;;;;;;15.48;10.88;;;6.10;71.20;;;;;;5014035;28;20053;-73
2022/04/11 01:39:47;;;;;;;17.77;11.70;;;6.10;71.20;;;;;;5010496;28;20394;-72
2022/04/11 01:42:12;;;;;;;19.60;11.68;;;6.10;71.40;;;;;;5006448;28;20429;-71
2022/04/11 01:44:38;;;;;;;15.48;10.93;;;6.10;71.50;;;;;;5013884;28;20484;-74
2022/04/11 01:47:04;;;;;;;17.88;11.43;;;6.10;71.60;;;;;;5005062;28;20049;-73
2022/04/11 01:49:30;;;;;;;17.75;11.27;;;6.10;71.70;;;;;;5010162;28;20038;-75
2022/04/11 01:51:55;;;;;;;15.85;11.65;;;6.00;71.70;;;;;;5019588;28;20045;-75
2022/04/11 01:54:21;;;;;;;15.88;11.63;;;6.00;71.80;;;;;;5013019;28;20120;-74
2022/04/11 01:56:47;;;;;;;18.77;12.60;;;6.00;71.90;;;;;;5014253;28;20595;-74
2022/04/11 01:59:14;;;;;;;16.38;11.57;;;5.90;72.00;;;;;;5007346;28;20038;-75
2022/04/11 02:01:40;;;;;;;15.90;11.43;;;6.00;71.90;;;;;;5012468;28;20454;-73
2022/04/11 02:04:06;;;;;;;16.10;11.02;;;6.00;71.80;;;;;;5001187;28;20120;-74
2022/04/11 02:06:32;;;;;;;14.10;10.55;;;5.90;71.70;;;;;;5007968;28;20543;-76
2022/04/11 02:08:57;;;;;;;15.43;10.48;;;5.90;71.80;;;;;;5000530;28;20116;-75
2022/04/11 02:11:23;;;;;;;15.68;10.98;;;5.90;71.60;;;;;;5016725;28;20033;-74
2022/04/11 02:13:48;;;;;;;14.07;10.80;;;5.90;71.70;;;;;;5001428;28;20591;-73
2022/04/11 02:16:14;;;;;;;17.50;11.75;;;5.90;71.60;;;;;;5013133;28;20037;-74
2022/04/11 02:18:40;;;;;;;15.80;11.80;;;5.80;71.60;;;;;;5012758;28;20045;-73
2022/04/11 02:21:06;;;;;;;18.95;11.88;;;5.80;71.80;;;;;;5011377;28;20037;-73
2022/04/11 02:23:31;;;;;;;15.95;11.63;;;5.80;71.90;;;;;;5007811;28;20446;-76
2022/04/11 02:25:57;;;;;;;17.48;12.45;;;5.80;72.00;;;;;;5010606;28;20113;-73
2022/04/11 02:28:22;;;;;;;16.50;12.07;;;5.70;72.10;;;;;;5010761;28;20438;-74
2022/04/11 02:30:48;;;;;;;18.13;11.95;;;5.80;72.20;;;;;;5011475;28;20481;-76
2022/04/11 02:33:14;;;;;;;19.27;12.27;;;5.70;72.40;;;;;;5008485;28;20033;-74
2022/04/11 02:35:41;;;;;;;18.70;12.82;;;5.60;72.30;;;;;;5002761;28;20037;-73
2022/04/11 02:38:06;;;;;;;17.98;13.02;;;5.70;72.40;;;;;;5006393;28;20125;-73
2022/04/11 02:40:32;;;;;;;18.55;12.05;;;5.60;72.60;;;;;;5011118;28;20047;-75
2022/04/11 02:42:58;;;;;;;19.98;12.18;;;5.60;72.70;;;;;;5002099;28;20038;-73
2022/04/11 02:45:24;;;;;;;18.70;13.30;;;5.60;72.60;;;;;;5013451;28;20396;-74
2022/04/11 02:47:50;;;;;;;17.05;12.48;;;5.60;72.60;;;;;;5011730;28;20109;-72
2022/04/11 02:50:16;;;;;;;20.63;13.02;;;5.60;72.70;;;;;;5008847;28;20038;-74
2022/04/11 02:52:42;;;;;;;16.05;11.98;;;5.60;72.70;;;;;;5015132;28;20049;-75
2022/04/11 02:55:08;;;;;;;18.85;13.07;;;5.60;72.80;;;;;;5014827;28;20044;-74
2022/04/11 02:57:36;;;;;;;17.65;12.43;;;5.60;72.80;;;;;;5006633;28;20053;-73
2022/04/11 03:00:04;;;;;;;19.75;12.70;;;5.60;73.00;;;;;;5008062;28;20389;-75
2022/04/11 03:02:30;;;;;;;16.15;11.27;;;5.50;73.10;;;;;;5008633;28;20065;-73
2022/04/11 03:04:56;;;;;;;16.30;11.60;;;5.40;73.10;;;;;;5008745;28;20167;-74
2022/04/11 03:07:22;;;;;;;18.08;11.88;;;5.50;73.20;;;;;;5010394;28;20127;-73
2022/04/11 03:09:47;;;;;;;19.98;13.50;;;5.40;73.20;;;;;;5015318;28;20038;-74
2022/04/11 03:12:13;;;;;;;16.17;11.85;;;5.50;73.20;;;;;;5007644;28;20049;-75
2022/04/11 03:14:39;;;;;;;16.25;11.88;;;5.40;73.20;;;;;;5015264;28;20330;-73
2022/04/11 03:17:04;;;;;;;16.75;11.93;;;5.40;73.20;;;;;;5005703;28;20037;-72
2022/04/11 03:19:30;;;;;;;15.75;11.68;;;5.40;73.20;;;;;;5003192;28;20095;-73
2022/04/11 03:21:56;;;;;;;21.45;12.88;;;5.40;73.30;;;;;;5015774;28;20025;-73
2022/04/11 03:24:21;;;;;;;16.70;12.65;;;5.30;73.40;;;;;;5013732;28;20040;-73
2022/04/11 03:26:47;;;;;;;15.50;11.20;;;5.40;73.50;;;;;;5011607;28;20042;-74
2022/04/11 03:29:13;;;;;;;14.85;12.18;;;5.30;73.50;;;;;;5019218;28;20042;-73
2022/04/11 03:31:38;;;;;;;18.38;12.57;;;5.30;73.40;;;;;;5007599;28;20049;-74
2022/04/11 03:34:04;;;;;;;18.15;12.73;;;5.30;73.40;;;;;;5010326;28;20042;-74
2022/04/11 03:36:29;;;;;;;16.70;12.10;;;5.30;73.40;;;;;;5016293;28;20073;-76
2022/04/11 03:38:55;;;;;;;20.13;12.25;;;5.30;73.50;;;;;;5008086;28;20103;-75
2022/04/11 03:41:21;;;;;;;17.92;12.32;;;5.20;73.60;;;;;;5012628;28;20447;-73
2022/04/11 03:43:46;;;;;;;18.00;12.13;;;5.20;73.70;;;;;;5013482;28;20065;-74
2022/04/11 03:46:12;;;;;;;17.67;12.80;;;5.20;73.80;;;;;;5009494;28;20301;-73
2022/04/11 03:48:38;;;;;;;16.48;11.88;;;5.20;73.90;;;;;;5016253;28;20061;-75
2022/04/11 03:51:03;;;;;;;15.75;11.57;;;5.20;74.00;;;;;;5007545;28;20034;-72
2022/04/11 03:53:29;;;;;;;20.20;12.77;;;5.10;74.10;;;;;;5003882;28;20038;-75
2022/04/11 03:55:54;;;;;;;16.48;11.77;;;5.10;74.10;;;;;;5007034;28;20485;-73
2022/04/11 03:58:20;;;;;;;17.77;11.85;;;5.10;74.20;;;;;;5006198;28;20129;-74
2022/04/11 04:00:46;;;;;;;18.52;12.70;;;5.10;74.30;;;;;;5011748;28;20123;-75
2022/04/11 04:03:13;;;;;;;17.73;12.05;;;5.10;74.30;;;;;;5006085;28;20056;-74
2022/04/11 04:05:40;;;;;;;17.17;11.30;;;5.10;74.30;;;;;;5007377;28;20563;-74
2022/04/11 04:08:06;;;;;;;16.13;11.88;;;5.10;74.20;;;;;;5005633;28;20573;-74
2022/04/11 04:10:32;;;;;;;18.00;11.90;;;5.00;74.20;;;;;;5009488;28;20500;-73
2022/04/11 04:12:58;;;;;;;18.55;11.40;;;5.00;74.30;;;;;;5005755;28;20037;-74
2022/04/11 04:15:24;;;;;;;15.35;11.40;;;5.00;74.40;;;;;;5013829;28;20046;-74
2022/04/11 04:17:53;;;;;;;18.50;12.35;;;5.00;74.30;;;;;;5010956;28;20310;-73
2022/04/11 04:20:19;;;;;;;15.27;11.05;;;5.00;74.20;;;;;;5020273;28;20056;-73
2022/04/11 04:22:45;;;;;;;15.85;11.02;;;5.00;74.40;;;;;;5003110;28;20414;-73
2022/04/11 04:25:10;;;;;;;17.27;12.25;;;4.90;74.40;;;;;;5005660;28;20044;-73
2022/04/11 04:27:36;;;;;;;17.30;10.98;;;4.90;74.40;;;;;;5016320;28;20115;-73
2022/04/11 04:30:03;;;;;;;16.08;11.20;;;4.90;74.40;;;;;;5006221;28;20084;-73
2022/04/11 04:32:29;;;;;;;16.90;10.80;;;4.90;74.50;;;;;;5010343;28;20073;-75
2022/04/11 04:34:55;;;;;;;17.17;11.82;;;4.80;74.60;;;;;;5012052;28;20249;-74
2022/04/11 04:37:20;;;;;;;15.70;11.35;;;4.80;74.60;;;;;;5007324;28;25327;-73
2022/04/11 04:39:46;;;;;;;14.27;11.48;;;4.90;74.80;;;;;;5011676;28;20087;-73
2022/04/11 04:42:11;;;;;;;15.00;10.50;;;4.90;74.70;;;;;;5019062;28;20212;-73
2022/04/11 04:44:40;;;;;;;17.25;11.60;;;4.80;74.70;;;;;;5020099;28;20545;-74
2022/04/11 04:47:07;;;;;;;18.27;11.23;;;4.90;74.70;;;;;;5017655;28;20119;-74
2022/04/11 04:49:33;;;;;;;19.98;11.88;;;4.80;74.60;;;;;;5002556;28;20048;-73
2022/04/11 04:52:01;;;;;;;20.67;11.68;;;4.80;74.60;;;;;;5023617;28;20494;-73
2022/04/11 04:54:26;;;;;;;13.50;10.70;;;4.80;74.60;;;;;;5003397;28;20535;-73
2022/04/11 04:56:52;;;;;;;17.15;11.15;;;4.80;74.50;;;;;;5013153;28;20030;-74
2022/04/11 04:59:18;;;;;;;15.48;10.15;;;4.80;74.60;;;;;;5009587;28;20060;-74
2022/04/11 05:01:43;;;;;;;19.70;11.05;;;4.80;74.60;;;;;;5012507;28;20044;-73
2022/04/11 05:04:09;;;;;;;14.57;10.13;;;4.80;74.60;;;;;;5007318;28;20113;-74
2022/04/11 05:06:35;;;;;;;13.02;10.25;;;4.80;74.50;;;;;;5007139;28;20473;-74
2022/04/11 05:09:00;;;;;;;15.35;10.57;;;4.90;74.50;;;;;;5010121;28;20030;-73
2022/04/11 05:11:26;;;;;;;14.43;10.43;;;4.90;74.30;;;;;;5013489;28;20046;-72
2022/04/11 05:13:52;;;;;;;17.55;10.38;;;4.90;74.20;;;;;;5011983;28;20537;-73
2022/04/11 05:16:18;;;;;;;13.90;9.65;;;5.00;74.00;;;;;;5009624;28;20041;-72
2022/04/11 05:18:45;;;;;;;16.02;9.50;;;5.00;73.90;;;;;;5010744;28;20098;-74
2022/04/11 05:21:10;;;;;;;14.85;9.13;;;5.10;73.80;;;;;;5011613;28;20048;-73
2022/04/11 05:23:36;;;;;;;17.83;10.10;;;5.10;73.50;;;;;;5003123;28;20620;-72
2022/04/11 05:26:05;;;;;;;13.20;9.10;;;5.20;73.30;;;;;;5007860;28;20033;-72
2022/04/11 05:28:31;;;;;;;13.23;9.48;;;5.30;73.10;;;;;;5010199;28;20603;-73
2022/04/11 05:30:57;;;;;;;13.07;8.60;;;5.30;72.80;;;;;;5013883;28;20034;-72
2022/04/11 05:33:23;;;;;;;14.30;8.95;;;5.30;72.70;;;;;;5006047;28;20075;-72
2022/04/11 05:35:48;;;;;;;13.77;8.52;;;5.40;72.50;;;;;;5006312;28;20045;-73
2022/04/11 05:38:16;;;;;;;15.88;9.23;;;5.40;72.40;;;;;;5007775;28;20050;-73
2022/04/11 05:40:41;;;;;;;14.02;9.00;;;5.50;72.30;;;;;;5014523;28;20040;-73
2022/04/11 05:43:07;;;;;;;13.05;9.38;;;5.50;72.20;;;;;;5009006;28;20034;-74
2022/04/11 05:45:33;;;;;;;13.50;8.85;;;5.60;72.10;;;;;;5009363;28;20750;-75
2022/04/11 05:47:58;;;;;;;12.55;8.63;;;5.60;71.70;;;;;;5004547;28;20381;-73
2022/04/11 05:50:24;;;;;;;12.75;8.82;;;5.60;71.40;;;;;;5006878;28;20492;-72
2022/04/11 05:52:50;;;;;;;11.63;8.60;;;5.70;71.60;;;;;;5001470;28;20066;-74
2022/04/11 05:55:15;;;;;;;13.50;8.52;;;5.70;71.50;;;;;;5001317;28;20132;-74
2022/04/11 05:57:43;;;;;;;14.43;9.20;;;5.70;71.40;;;;;;5003635;28;20473;-72
2022/04/11 06:00:09;;;;;;;16.30;9.32;;;5.80;71.60;;;;;;5001836;28;20038;-72
2022/04/11 06:02:34;;;;;;;11.52;8.32;;;5.80;71.40;;;;;;5022149;28;20029;-72
2022/04/11 06:05:00;;;;;;;13.20;8.95;;;5.90;71.50;;;;;;5008554;28;20393;-72
2022/04/11 06:07:27;;;;;;;13.70;8.43;;;5.90;71.30;;;;;;5009105;28;20056;-73
2022/04/11 06:09:54;;;;;;;14.25;8.40;;;6.10;70.60;;;;;;5011505;28;20154;-72
2022/04/11 06:12:21;;;;;;;13.85;8.63;;;6.10;70.40;;;;;;5009568;28;20116;-73
2022/04/11 06:14:47;;;;;;;13.85;8.20;;;6.20;70.30;;;;;;5010921;28;20052;-73
2022/04/11 06:17:13;;;;;;;13.20;8.40;;;6.30;70.00;;;;;;5014966;28;20233;-73
2022/04/11 06:19:38;;;;;;;14.90;9.30;;;6.40;69.60;;;;;;5016973;28;20037;-73
2022/04/11 06:22:04;;;;;;;17.17;9.80;;;6.50;69.50;;;;;;5005711;28;20038;-73
2022/04/11 06:24:30;;;;;;;16.90;9.45;;;6.50;69.20;;;;;;5005908;28;20061;-74
2022/04/11 06:26:55;;;;;;;13.82;8.13;;;6.60;69.10;;;;;;5006207;28;20436;-73
2022/04/11 06:29:21;;;;;;;17.83;10.65;;;6.60;69.20;;;;;;5011522;28;20108;-72
2022/04/11 06:31:46;;;;;;;13.20;8.10;;;6.70;68.80;;;;;;5007066;28;20473;-71
2022/04/11 06:34:12;;;;;;;13.70;7.88;;;6.80;68.70;;;;;;5002958;28;20069;-72
2022/04/11 06:36:38;;;;;;;16.60;9.35;;;6.90;68.80;;;;;;5007982;28;20117;-72
2022/04/11 06:39:03;;;;;;;15.50;8.60;;;7.00;68.70;;;;;;5010002;28;20081;-72
2022/04/11 06:41:29;;;;;;;15.25;8.85;;;7.10;68.40;;;;;;5005528;28;20288;-73
2022/04/11 06:43:55;;;;;;;16.15;9.02;;;7.10;68.20;;;;;;5003720;28;20030;-76
2022/04/11 06:46:21;;;;;;;16.40;7.45;;;7.30;68.10;;;;;;5012150;28;20033;-73
2022/04/11 06:48:47;;;;;;;14.48;7.50;;;7.40;67.90;;;;;;5009974;28;20049;-73
2022/04/11 06:51:12;;;;;;;12.38;6.90;;;7.60;67.90;;;;;;5008603;28;20045;-73
2022/04/11 06:53:38;;;;;;;13.05;7.70;;;7.60;66.90;;;;;;5004730;28;20038;-73
2022/04/11 06:56:04;;;;;;;18.92;7.68;;;7.70;66.90;;;;;;5017346;28;20434;-74
2022/04/11 06:58:29;;;;;;;12.18;6.65;;;7.80;66.80;;;;;;5021889;28;20039;-75
2022/04/11 07:00:55;;;;;;;14.77;7.60;;;8.10;66.20;;;;;;5015601;28;20041;-73
2022/04/11 07:03:21;;;;;;;10.63;6.80;;;8.30;65.60;;;;;;5008988;28;20113;-73
2022/04/11 07:05:46;;;;;;;13.32;7.47;;;8.40;65.00;;;;;;5006273;28;20531;-73
2022/04/11 07:08:12;;;;;;;10.98;6.47;;;8.60;64.30;;;;;;5012295;28;20045;-75
2022/04/11 07:10:40;;;;;;;11.98;8.00;;;8.80;63.70;;;;;;5008454;28;20058;-74
2022/04/11 07:13:06;;;;;;;13.07;7.30;;;9.00;63.00;;;;;;5006055;28;20052;-73
2022/04/11 07:15:32;;;;;;;13.25;7.95;;;9.10;63.10;;;;;;5019398;28;20610;-74
2022/04/11 07:17:58;;;;;;;14.18;8.45;;;9.20;62.40;;;;;;5015975;28;20049;-76
2022/04/11 07:20:23;;;;;;;13.32;7.25;;;9.40;62.30;;;;;;5012756;28;20029;-74
2022/04/11 07:22:49;;;;;;;14.15;7.15;;;9.60;62.10;;;;;;5005325;28;20029;-73
2022/04/11 07:25:15;;;;;;;14.30;8.15;;;9.70;61.10;;;;;;5013186;28;20057;-77
2022/04/11 07:27:40;;;;;;;16.25;9.35;;;9.80;60.60;;;;;;5006559;28;20121;-74
2022/04/11 07:30:06;;;;;;;13.48;7.40;;;10.00;59.90;;;;;;5008731;28;20129;-73
2022/04/11 07:32:32;;;;;;;13.50;7.25;;;10.20;59.70;;;;;;5012604;28;20025;-71
2022/04/11 07:34:58;;;;;;;10.98;6.75;;;10.50;58.20;;;;;;5006430;28;20033;-74
2022/04/11 07:37:25;;;;;;;13.77;7.00;;;10.60;57.40;;;;;;5010672;28;20513;-71
2022/04/11 07:39:52;;;;;;;14.05;7.05;;;10.60;56.50;;;;;;5010430;28;20045;-71
2022/04/11 07:42:19;;;;;;;12.32;6.18;;;10.70;56.90;;;;;;5006887;28;20034;-71
2022/04/11 07:44:45;;;;;;;8.15;4.68;;;10.70;56.60;;;;;;5008046;28;20029;-71
2022/04/11 07:47:11;;;;;;;9.63;4.97;;;10.70;55.30;;;;;;5010201;28;20044;-73
2022/04/11 07:49:36;;;;;;;8.32;4.65;;;10.70;53.50;;;;;;5004560;28;20042;-73
2022/04/11 07:52:02;;;;;;;9.32;5.15;;;10.90;53.90;;;;;;5012937;28;20042;-73
2022/04/11 07:54:28;;;;;;;12.98;5.53;;;11.10;53.30;;;;;;5012477;28;20092;-73
2022/04/11 07:56:53;;;;;;;15.70;5.25;;;11.10;52.70;;;;;;5004410;28;20034;-73
2022/04/11 07:59:19;;;;;;;9.90;4.50;;;11.20;51.80;;;;;;5007794;28;20131;-72
2022/04/11 08:01:45;;;;;;;8.00;5.22;;;11.20;50.90;;;;;;5020495;28;20029;-74
2022/04/11 08:04:11;;;;;;;10.05;4.60;;;11.40;51.90;;;;;;5019606;28;20590;-75
2022/04/11 08:06:37;;;;;;;9.52;4.68;;;11.50;50.30;;;;;;5008604;28;20136;-73
2022/04/11 08:09:03;;;;;;;10.27;4.95;;;11.60;50.90;;;;;;5014507;28;20034;-73
2022/04/11 08:11:29;;;;;;;9.07;4.97;;;11.80;49.80;;;;;;5015290;28;20143;-74
2022/04/11 08:13:55;;;;;;;8.85;4.88;;;11.80;50.30;;;;;;5008956;28;20037;-74
2022/04/11 08:16:20;;;;;;;9.68;4.90;;;12.00;51.00;;;;;;5004605;28;20038;-73
2022/04/11 08:18:46;;;;;;;10.60;4.60;;;12.00;49.30;;;;;;5005652;28;20082;-72
2022/04/11 08:21:12;;;;;;;11.13;5.40;;;12.10;49.20;;;;;;5008728;28;20916;-73
2022/04/11 08:23:37;;;;;;;10.80;5.03;;;12.30;50.40;;;;;;5006356;28;20080;-73
2022/04/11 08:26:03;;;;;;;10.75;5.70;;;12.20;48.90;;;;;;5012923;28;20029;-72
2022/04/11 08:28:29;;;;;;;10.80;5.95;;;12.40;49.20;;;;;;5009583;28;20547;-74
2022/04/11 08:30:55;;;;;;;9.77;4.75;;;12.40;48.20;;;;;;5013367;28;20046;-74
2022/04/11 08:33:20;;;;;;;12.60;5.57;;;12.50;48.30;;;;;;5004995;28;20041;-74
2022/04/11 08:35:46;;;;;;;9.93;5.03;;;12.50;49.10;;;;;;5006096;28;20072;-73
2022/04/11 08:38:12;;;;;;;11.38;4.65;;;12.60;48.40;;;;;;5009458;28;20338;-72
2022/04/11 08:40:38;;;;;;;9.95;5.47;;;12.70;48.30;;;;;;5017526;28;20036;-73
2022/04/11 08:43:05;;;;;;;8.95;4.95;;;12.80;47.80;;;;;;5011778;28;20075;-74
2022/04/11 08:45:30;;;;;;;10.68;5.22;;;12.80;47.50;;;;;;5020619;28;20068;-73
2022/04/11 08:47:56;;;;;;;10.00;5.50;;;12.90;48.10;;;;;;5011723;28;20120;-73
2022/04/11 08:50:26;;;;;;;14.52;6.35;;;13.10;48.50;;;;;;5008454;28;20052;-73
2022/04/11 08:52:53;;;;;;;11.52;5.50;;;13.40;48.30;;;;;;5019511;28;20037;-74
2022/04/11 08:55:20;;;;;;;10.55;5.43;;;13.60;48.40;;;;;;5010053;28;20053;-74
2022/04/11 08:57:45;;;;;;;9.52;5.43;;;13.90;47.00;;;;;;5015550;28;20144;-73
2022/04/11 09:00:22;;;;;;;10.30;4.88;;;13.80;46.10;;;;;;5022586;28;20519;-76
2022/04/11 09:02:48;;;;;;;8.88;4.97;;;14.00;46.90;;;;;;5014918;28;20064;-75
2022/04/11 09:05:20;;;;;;;11.50;4.55;;;13.90;46.10;;;;;;5018099;28;20124;-75
2022/04/11 09:07:51;;;;;;;8.38;4.80;;;14.10;46.10;;;;;;5016499;28;20128;-75
2022/04/11 09:10:23;;;;;;;8.48;4.60;;;13.80;46.20;;;;;;5012803;28;20091;-75
2022/04/11 09:12:50;;;;;;;10.27;4.75;;;13.90;45.60;;;;;;5017350;28;20494;-75
2022/04/11 09:15:17;;;;;;;8.73;4.88;;;14.00;46.70;;;;;;5020030;28;20047;-75
2022/04/11 09:17:44;;;;;;;10.55;5.45;;;14.30;47.00;;;;;;5015038;28;20650;-75
2022/04/11 09:20:12;;;;;;;10.45;4.90;;;14.60;46.20;;;;;;5007442;28;20419;-75
2022/04/11 09:22:38;;;;;;;11.75;5.05;;;14.60;44.40;;;;;;5013716;28;20560;-75
2022/04/11 09:25:09;;;;;;;9.02;4.80;;;14.70;44.90;;;;;;5004768;28;20482;-75
2022/04/11 09:27:35;;;;;;;9.45;4.32;;;15.10;44.80;;;;;;5018250;28;20033;-75
2022/04/11 09:30:01;;;;;;;10.63;4.03;;;15.20;43.20;;;;;;5007567;28;20125;-75
2022/04/11 09:32:27;;;;;;;12.20;4.80;;;15.00;42.10;;;;;;5014703;28;20136;-74
2022/04/11 09:34:56;;;;;;;8.48;4.43;;;15.00;42.20;;;;;;5012122;28;20034;-76
2022/04/11 09:37:22;;;;;;;9.63;4.35;;;15.30;43.10;;;;;;5019402;28;20544;-76
2022/04/11 09:39:58;;;;;;;10.88;4.85;;;15.50;42.90;;;;;;5027722;28;20026;-76
2022/04/11 09:42:31;;;;;;;11.02;5.80;;;15.20;42.50;;;;;;5027641;28;20227;-76
2022/04/11 09:45:00;;;;;;;8.80;4.18;;;15.10;42.70;;;;;;5022081;28;20040;-75
2022/04/11 09:47:26;;;;;;;8.75;4.30;;;15.10;43.10;;;;;;5012821;28;20440;-74
2022/04/11 09:49:53;;;;;;;9.13;4.30;;;15.30;43.50;;;;;;5010840;28;20045;-77
2022/04/11 09:52:19;;;;;;;9.55;4.55;;;15.80;43.10;;;;;;5011385;28;20058;-75
2022/04/11 09:54:50;;;;;;;8.07;4.30;;;15.80;41.60;;;;;;5026995;28;20053;-76
2022/04/11 09:57:16;;;;;;;9.52;4.15;;;15.90;41.60;;;;;;5004148;28;20053;-75
2022/04/11 09:59:44;;;;;;;9.48;3.90;;;15.80;40.10;;;;;;5009131;28;20751;-76
2022/04/11 10:02:10;;;;;;;8.65;4.22;;;15.80;40.90;;;;;;5010501;28;20041;-75
2022/04/11 10:04:38;;;;;;;10.07;5.20;;;15.80;41.50;;;;;;5016980;28;20153;-74
2022/04/11 10:07:04;;;;;;;9.68;3.90;;;16.00;41.10;;;;;;5016514;28;20100;-75
2022/04/11 10:09:30;;;;;;;7.72;3.60;;;16.10;40.40;;;;;;5013711;28;20144;-74
2022/04/11 10:11:56;;;;;;;7.72;4.10;;;15.90;40.20;;;;;;5009439;28;20037;-75
2022/04/11 10:14:23;;;;;;;9.32;4.63;;;16.10;40.00;;;;;;5015564;28;20037;-75
2022/04/11 10:17:01;;;;;;;9.07;4.15;;;16.30;39.80;;;;;;5014944;28;20046;-74
2022/04/11 10:19:32;;;;;;;9.70;4.07;;;16.60;39.80;;;;;;5007882;28;20053;-74
2022/04/11 10:22:20;;;;;;;7.60;4.10;;;16.60;40.00;;;;;;5007978;28;20491;-74
2022/04/11 10:25:06;;;;;;;8.30;4.00;;;16.40;39.60;;;;;;5010027;28;20317;-74
2022/04/11 10:27:33;;;;;;;9.63;4.43;;;16.70;38.70;;;;;;5001744;28;20040;-74
2022/04/11 10:29:59;;;;;;;7.65;4.13;;;16.40;39.60;;;;;;5005731;28;20044;-73
2022/04/11 10:32:29;;;;;;;10.82;4.70;;;16.80;40.90;;;;;;5005527;28;20041;-75
2022/04/11 10:35:08;;;;;;;9.32;4.32;;;16.90;41.00;;;;;;5009584;28;20034;-74
2022/04/11 10:37:39;;;;;;;9.50;3.78;;;16.80;40.60;;;;;;4987816;28;20072;-74
2022/04/11 10:40:16;;;;;;;9.77;4.85;;;17.10;39.40;;;;;;4990831;28;20651;-74
2022/04/11 10:43:07;;;;;;;11.02;4.63;;;17.00;40.10;;;;;;4987981;28;20038;-73
2022/04/11 10:45:42;;;;;;;8.68;3.90;;;17.40;40.20;;;;;;5007145;28;20438;-74
2022/04/11 10:48:11;;;;;;;;;;;17.80;39.40;;;;;;5003898;28;20042;-73
2022/04/11 10:50:44;;;;;;;9.65;4.75;;;17.70;38.60;;;;;;5006753;28;19921;-74
2022/04/11 10:53:24;;;;;;;11.35;3.85;;;17.70;37.40;;;;;;5005730;28;20065;-75
2022/04/11 10:56:06;;;;;;;9.80;4.03;;;17.60;38.40;;;;;;5006773;28;20859;-75
2022/04/11 10:58:47;;;;;;;8.50;4.07;;;17.60;39.10;;;;;;5007712;28;20046;-75
2022/04/11 11:01:12;;;;;;;7.90;4.10;;;17.60;37.10;;;;;;5007720;28;20038;-75
2022/04/11 11:03:40;;;;;;;9.70;4.20;;;17.80;37.10;;;;;;5005394;28;20378;-75
2022/04/11 11:06:32;;;;;;;8.02;4.15;;;18.00;36.60;;;;;;5005392;28;20065;-76
2022/04/11 11:09:17;;;;;;;8.27;4.10;;;18.00;37.50;;;;;;5005912;28;20143;-75
2022/04/11 11:11:45;;;;;;;7.68;4.32;;;18.00;37.60;;;;;;4986402;28;20117;-75
2022/04/11 11:14:40;;;;;;;8.48;4.13;;;18.10;36.10;;;;;;4986360;28;20074;-75
2022/04/11 11:17:06;;;;;;;;;;;18.10;36.70;;;;;;4989720;28;20551;-76
2022/04/11 11:19:51;;;;;;;8.77;4.50;;;17.90;36.40;;;;;;4982338;28;19937;-75
2022/04/11 11:22:17;;;;;;;8.20;4.03;;;17.90;36.10;;;;;;4984112;28;20034;-74
2022/04/11 11:25:16;;;;;;;6.97;4.25;;;17.90;36.60;;;;;;4985001;28;20045;-74
2022/04/11 11:27:44;;;;;;;8.73;4.22;;;17.90;36.30;;;;;;4990535;28;20092;-74
2022/04/11 11:30:11;;;;;;;8.88;4.50;;;17.80;35.70;;;;;;5014290;28;20120;-74
2022/04/11 11:32:40;;;;;;;7.25;4.38;;;18.00;36.80;;;;;;5011062;28;20037;-74
2022/04/11 11:35:09;;;;;;;9.25;5.13;;;17.70;35.40;;;;;;5010459;28;20040;-75
2022/04/11 11:37:35;;;;;;;8.68;4.22;;;17.70;35.90;;;;;;5018933;28;20080;-74
2022/04/11 11:40:03;;;;;;;8.85;4.35;;;17.70;35.90;;;;;;5023947;28;20155;-74
2022/04/11 11:42:35;;;;;;;8.18;4.13;;;17.60;36.30;;;;;;4990223;28;20381;-74
2022/04/11 11:45:02;;;;;;;7.05;4.22;;;17.90;37.90;;;;;;4991826;28;20054;-74
2022/04/11 11:47:28;;;;;;;7.90;4.55;;;18.10;35.30;;;;;;4990348;28;20513;-74
2022/04/11 11:50:02;;;;;;;8.15;5.10;;;18.00;36.30;;;;;;5011610;28;20095;-74
2022/04/11 11:52:27;;;;;;;7.57;4.30;;;18.10;37.40;;;;;;5017363;28;20045;-74
2022/04/11 11:54:53;;;;;;;8.52;4.55;;;18.20;37.00;;;;;;5014665;28;20448;-75
2022/04/11 11:57:26;;;;;;;9.35;4.95;;;18.20;35.40;;;;;;5016814;28;20034;-73
2022/04/11 12:00:07;;;;;;;11.48;5.20;;;18.10;36.20;;;;;;5008237;28;20044;-75
2022/04/11 12:05:28;;;;;;;9.25;4.35;;;18.20;35.70;;;;;;5007315;28;20504;-76
2022/04/11 12:08:07;;;;;;;8.67;4.67;;;18.50;35.00;;;;;;5009303;28;20045;-76
2022/04/11 12:10:33;;;;;;;8.80;4.90;;;18.60;34.40;;;;;;5009986;28;20273;-75
2022/04/11 12:12:59;;;;;;;8.43;4.38;;;18.10;34.60;;;;;;5012744;28;20125;-75
2022/04/11 12:15:31;;;;;;;11.55;4.97;;;18.30;34.70;;;;;;5010802;28;20159;-75
2022/04/11 12:18:05;;;;;;;7.47;4.60;;;18.30;35.50;;;;;;5010534;28;20510;-76
2022/04/11 12:20:31;;;;;;;;;;;18.40;35.10;;;;;;5013971;28;20045;-76
2022/04/11 12:23:26;;;;;;;8.65;4.53;;;18.40;33.90;;;;;;5009277;28;20341;-73
2022/04/11 12:25:54;;;;;;;;;;;18.10;34.90;;;;;;5013342;28;20034;-74
2022/04/11 12:28:27;;;;;;;8.57;4.55;;;18.30;34.70;;;;;;5006975;28;19969;-74
2022/04/11 12:31:06;;;;;;;9.48;5.25;;;18.50;34.90;;;;;;5012635;28;20140;-74
2022/04/11 12:33:37;;;;;;;7.95;4.63;;;18.50;34.50;;;;;;5010258;28;20038;-73
2022/04/11 12:36:15;;;;;;;6.38;3.90;;;18.30;34.40;;;;;;5006207;28;20126;-74
2022/04/11 12:38:45;;;;;;;11.27;5.25;;;18.50;35.60;;;;;;5010989;28;20057;-73
2022/04/11 12:41:36;;;;;;;12.27;5.93;;;18.80;35.40;;;;;;5004923;28;20034;-74
2022/04/11 12:44:07;;;;;;;9.15;4.50;;;18.90;34.50;;;;;;5016935;28;20069;-74
2022/04/11 12:46:38;;;;;;;7.05;4.00;;;19.20;34.50;;;;;;4996170;28;20044;-74
2022/04/11 12:49:05;;;;;;;8.02;4.40;;;19.30;33.80;;;;;;5009454;28;20038;-73